createdAt,value
2022-09-04T08:01:42.787Z,16.77
2022-09-04T08:02:42.538Z,16.80
2022-09-04T08:03:54.068Z,16.83
2022-09-04T08:04:43.298Z,16.86
2022-09-04T08:05:42.313Z,16.88
2022-09-04T08:06:42.283Z,16.90
2022-09-04T08:07:42.255Z,16.92
2022-09-04T08:08:42.226Z,16.95
2022-09-04T08:09:42.303Z,16.98
2022-09-04T08:10:42.671Z,17.00
2022-09-04T08:11:42.263Z,17.06
2022-09-04T08:12:42.175Z,17.06
2022-09-04T08:13:42.163Z,17.08
2022-09-04T08:14:42.312Z,17.10
2022-09-04T09:23:29.026Z,20.25
2022-09-04T09:24:30.060Z,20.30
2022-09-04T09:25:28.985Z,20.33
2022-09-04T09:26:28.854Z,20.35
2022-09-04T09:27:28.869Z,20.39
2022-09-04T09:28:28.824Z,20.42
2022-09-04T09:29:28.805Z,20.42
2022-09-04T09:30:28.830Z,20.43
2022-09-04T09:31:28.778Z,20.46
2022-09-04T09:32:28.788Z,20.47
2022-09-04T09:33:28.774Z,20.50
2022-09-04T09:34:28.784Z,20.51
2022-09-04T09:35:28.733Z,20.50
2022-09-04T09:36:28.713Z,20.51
2022-09-04T09:37:28.694Z,20.51
2022-09-04T09:38:28.701Z,20.54
2022-09-04T09:39:28.735Z,20.58
2022-09-04T09:40:28.686Z,20.59
2022-09-04T09:41:28.677Z,20.62
2022-09-04T09:42:28.630Z,20.66
2022-09-04T09:43:28.674Z,20.69
2022-09-04T09:44:28.603Z,20.74
2022-09-04T09:45:28.643Z,20.81
2022-09-04T09:46:28.662Z,20.83
2022-09-04T09:47:28.564Z,20.90
2022-09-04T09:48:28.571Z,20.98
2022-09-04T09:49:28.573Z,21.04
2022-09-04T09:50:28.523Z,21.11
2022-09-04T09:51:28.510Z,21.16
2022-09-04T09:52:29.352Z,21.23
2022-09-04T09:53:28.491Z,21.26
2022-09-04T09:54:28.492Z,21.32
2022-09-04T09:55:28.479Z,21.35
2022-09-04T09:56:28.457Z,21.41
2022-09-04T09:57:33.348Z,21.44
2022-09-04T09:58:29.428Z,21.48
2022-09-04T09:59:28.415Z,21.51
2022-09-04T10:00:28.394Z,21.54
2022-09-04T10:01:28.483Z,21.56
2022-09-04T10:02:28.425Z,21.54
2022-09-04T10:03:28.369Z,21.54
2022-09-04T10:04:28.359Z,21.51
2022-09-04T11:35:49.898Z,22.60
2022-09-04T11:36:49.814Z,22.64
2022-09-04T11:37:51.902Z,22.67
2022-09-04T11:38:50.938Z,22.69
2022-09-04T11:39:49.771Z,22.72
2022-09-04T11:40:49.702Z,22.74
2022-09-04T11:41:49.720Z,22.77
2022-09-04T11:42:49.676Z,22.82
2022-09-04T11:43:51.264Z,22.83
2022-09-04T11:44:49.863Z,22.84
2022-09-04T11:45:49.682Z,22.90
2022-09-04T11:46:49.625Z,22.92
2022-09-04T11:47:49.605Z,22.96
2022-09-04T11:49:06.851Z,22.99
2022-09-04T11:49:51.091Z,23.02
2022-09-04T11:50:49.563Z,23.07
2022-09-04T11:51:49.532Z,23.11
2022-09-04T11:52:50.768Z,23.14
2022-09-04T11:53:50.400Z,23.20
2022-09-04T11:54:52.452Z,23.23
2022-09-04T11:55:52.626Z,23.29
2022-09-04T11:56:49.509Z,23.27
2022-09-04T11:57:49.459Z,23.32
2022-09-04T11:58:49.665Z,23.38
2022-09-04T11:59:49.459Z,23.43
2022-09-04T12:00:49.418Z,23.46
2022-09-04T12:01:49.468Z,23.49
2022-09-04T12:02:49.398Z,23.49
2022-09-04T12:03:49.405Z,23.50
2022-09-04T12:04:49.368Z,23.53
2022-09-04T12:05:49.358Z,23.57
2022-09-04T12:06:49.346Z,23.58
2022-09-04T12:07:49.396Z,23.60
2022-09-04T12:08:50.413Z,23.61
2022-09-04T12:09:49.303Z,23.64
2022-09-04T12:10:49.286Z,23.65
2022-09-04T12:11:49.287Z,23.67
2022-09-04T12:12:49.265Z,23.68
2022-09-04T12:13:49.237Z,23.70
2022-09-04T12:14:49.238Z,23.70
2022-09-04T12:15:49.216Z,23.75
2022-09-04T12:16:49.240Z,23.75
2022-09-04T12:17:49.186Z,23.75
2022-09-04T12:18:49.171Z,23.77
2022-09-04T12:19:49.207Z,23.77
2022-09-04T12:20:49.178Z,23.76
2022-09-04T12:21:49.172Z,23.76
2022-09-04T12:22:49.136Z,23.76
2022-09-04T12:23:49.135Z,23.76
2022-09-04T12:24:49.117Z,23.76
2022-09-04T12:25:49.088Z,23.77
2022-09-04T12:26:51.942Z,23.79
2022-09-04T12:27:49.074Z,23.80
2022-09-04T12:28:49.037Z,23.83
2022-09-04T12:29:49.053Z,23.80
2022-09-04T12:30:49.016Z,23.83
2022-09-04T12:31:51.560Z,23.86
2022-09-04T12:32:49.006Z,23.90
2022-09-04T12:33:48.976Z,23.94
2022-09-04T12:34:49.029Z,23.98
2022-09-04T12:35:48.978Z,24.01
2022-09-04T12:36:48.994Z,24.04
2022-09-04T12:37:48.954Z,24.07
2022-09-04T12:38:48.934Z,24.08
2022-09-04T12:39:49.011Z,24.10
2022-09-04T12:40:48.915Z,24.13
2022-09-04T12:41:50.031Z,24.16
2022-09-04T12:42:48.894Z,24.23
2022-09-04T12:43:48.886Z,24.27
2022-09-04T12:44:48.857Z,24.32
2022-09-04T12:45:48.906Z,24.38
2022-09-04T12:46:48.823Z,24.39
2022-09-04T12:47:48.830Z,24.44
2022-09-04T12:48:48.832Z,24.49
2022-09-04T12:49:48.784Z,24.49
2022-09-04T12:50:48.784Z,24.52
2022-09-04T12:51:48.777Z,24.54
2022-09-04T12:52:48.752Z,24.56
2022-09-04T12:53:52.575Z,24.57
2022-09-04T12:54:48.743Z,24.59
2022-09-04T12:55:48.714Z,24.60
2022-09-04T12:56:49.237Z,24.57
2022-09-04T12:57:48.770Z,24.54
2022-09-04T12:58:48.691Z,24.59
2022-09-04T12:59:48.699Z,24.61
2022-09-04T13:00:49.837Z,24.63
2022-09-04T13:01:48.725Z,24.68
2022-09-04T13:02:48.634Z,24.71
2022-09-04T13:03:48.600Z,24.77
2022-09-04T13:04:48.654Z,24.82
2022-09-04T13:05:52.913Z,24.88
2022-09-04T13:06:53.371Z,24.92
2022-09-04T13:07:48.574Z,24.94
2022-09-04T13:08:48.541Z,24.97
2022-09-04T13:09:53.287Z,25.00
2022-09-04T13:10:49.509Z,25.02
2022-09-04T13:11:48.480Z,25.07
2022-09-04T13:12:48.474Z,25.10
2022-09-04T13:13:48.452Z,25.15
2022-09-04T13:14:48.425Z,25.16
2022-09-04T13:15:48.401Z,25.17
2022-09-04T13:16:51.162Z,25.20
2022-09-04T13:17:49.411Z,25.20
2022-09-04T13:18:48.371Z,25.24
2022-09-04T13:19:48.352Z,25.25
2022-09-04T13:20:48.341Z,25.24
2022-09-04T13:21:48.330Z,25.20
2022-09-04T13:22:48.318Z,25.19
2022-09-04T13:23:48.322Z,25.20
2022-09-04T13:24:48.329Z,25.20
2022-09-04T13:25:48.317Z,25.22
2022-09-04T13:26:48.301Z,25.22
2022-09-04T13:27:48.274Z,25.27
2022-09-04T13:28:48.268Z,25.30
2022-09-04T13:29:48.281Z,25.31
2022-09-04T13:30:48.229Z,25.32
2022-09-04T13:31:48.309Z,25.35
2022-09-04T13:32:48.238Z,25.34
2022-09-04T13:33:49.265Z,25.34
2022-09-04T13:34:48.208Z,25.31
2022-09-04T13:35:48.165Z,25.28
2022-09-04T13:36:48.129Z,25.22
2022-09-04T13:37:48.121Z,25.19
2022-09-04T13:38:48.090Z,25.19
2022-09-04T13:39:48.134Z,25.19
2022-09-04T13:40:48.099Z,25.19
2022-09-04T13:41:48.079Z,25.19
2022-09-04T13:42:52.107Z,25.17
2022-09-04T13:43:48.027Z,25.19
2022-09-04T13:44:48.018Z,25.19
2022-09-04T13:45:47.996Z,25.19
2022-09-04T13:46:48.069Z,25.20
2022-09-04T13:47:47.987Z,25.20
2022-09-04T13:48:47.958Z,25.19
2022-09-04T13:49:47.966Z,25.19
2022-09-04T13:50:47.927Z,25.20
2022-09-04T13:51:47.938Z,25.20
2022-09-04T13:52:47.911Z,25.24
2022-09-04T13:53:47.936Z,25.24
2022-09-04T13:54:47.919Z,25.24
2022-09-04T13:55:50.033Z,25.22
2022-09-04T13:56:47.853Z,25.25
2022-09-04T13:57:47.844Z,25.24
2022-09-04T13:58:47.835Z,25.20
2022-09-04T13:59:47.878Z,25.17
2022-09-04T14:00:47.817Z,25.13
2022-09-04T14:01:47.786Z,25.10
2022-09-04T14:02:47.794Z,25.05
2022-09-04T14:03:47.830Z,25.00
2022-09-04T14:04:49.545Z,24.97
2022-09-04T14:05:47.767Z,24.95
2022-09-04T14:06:47.729Z,24.92
2022-09-04T14:07:47.709Z,24.92
2022-09-04T14:08:59.620Z,24.92
2022-09-04T14:09:48.685Z,24.91
2022-09-04T14:10:47.702Z,24.91
2022-09-04T14:11:47.660Z,24.91
2022-09-04T14:12:53.681Z,24.92
2022-09-04T14:13:48.635Z,24.94
2022-09-04T14:14:47.649Z,24.92
2022-09-04T14:15:47.703Z,24.92
2022-09-04T14:16:47.613Z,24.91
2022-09-04T14:17:47.595Z,24.91
2022-09-04T14:18:47.604Z,24.90
2022-09-04T14:19:47.609Z,24.87
2022-09-04T14:20:47.564Z,24.83
2022-09-04T14:21:47.584Z,24.79
2022-09-04T14:22:47.542Z,24.76
2022-09-04T14:23:47.503Z,24.75
2022-09-04T14:24:47.503Z,24.71
2022-09-04T14:25:47.493Z,24.69
2022-09-04T14:26:47.462Z,24.67
2022-09-04T14:27:47.463Z,24.64
2022-09-04T14:28:47.444Z,24.61
2022-09-04T14:29:47.435Z,24.60
2022-09-04T14:30:47.422Z,24.59
2022-09-04T14:31:49.153Z,24.59
2022-09-04T14:32:47.411Z,24.57
2022-09-04T14:33:47.425Z,24.54
2022-09-04T14:34:47.588Z,24.53
2022-09-04T14:35:47.384Z,24.53
2022-09-04T14:36:47.342Z,24.49
2022-09-04T14:37:47.335Z,24.47
2022-09-04T14:38:48.321Z,24.42
2022-09-04T14:39:47.841Z,24.38
2022-09-04T14:40:47.312Z,24.38
2022-09-04T14:41:47.265Z,24.35
2022-09-04T14:42:47.262Z,24.35
2022-09-04T14:43:47.263Z,24.32
2022-09-04T14:44:47.232Z,24.31
2022-09-04T14:45:47.220Z,24.29
2022-09-04T14:46:50.888Z,24.27
2022-09-04T14:47:47.304Z,24.27
2022-09-04T14:48:47.185Z,24.26
2022-09-04T14:49:47.701Z,24.24
2022-09-04T14:50:47.580Z,24.24
2022-09-04T14:51:47.265Z,24.24
2022-09-04T14:52:47.923Z,24.22
2022-09-04T14:53:48.068Z,24.22
2022-09-04T14:54:47.144Z,24.19
2022-09-04T14:55:47.145Z,24.17
2022-09-04T14:56:47.089Z,24.17
2022-09-04T14:57:47.104Z,24.16
2022-09-04T14:58:50.563Z,24.14
2022-09-04T14:59:47.830Z,24.13
2022-09-04T15:00:47.021Z,24.14
2022-09-04T15:01:47.097Z,24.12
2022-09-04T15:02:47.019Z,24.13
2022-09-04T15:03:47.043Z,24.12
2022-09-04T15:04:46.953Z,24.10
2022-09-04T15:05:46.937Z,24.08
2022-09-04T15:07:07.982Z,24.08
2022-09-04T15:07:47.908Z,24.07
2022-09-04T15:08:46.911Z,24.05
2022-09-04T15:09:46.878Z,24.04
2022-09-04T15:10:46.917Z,24.02
2022-09-04T15:11:46.870Z,24.02
2022-09-04T15:12:46.878Z,24.01
2022-09-04T15:13:46.882Z,23.98
2022-09-04T15:14:46.890Z,23.97
2022-09-04T15:15:46.865Z,23.97
2022-09-04T15:16:46.800Z,23.92
2022-09-04T15:17:47.421Z,23.90
2022-09-04T15:18:46.801Z,23.90
2022-09-04T15:19:46.754Z,23.87
2022-09-04T15:20:46.755Z,23.86
2022-09-04T15:21:46.747Z,23.85
2022-09-04T15:22:46.828Z,23.85
2022-09-04T15:23:46.687Z,23.83
2022-09-04T15:24:46.707Z,23.80
2022-09-04T15:26:01.975Z,23.77
2022-09-04T15:26:47.689Z,23.77
2022-09-04T15:27:46.666Z,23.75
2022-09-04T15:28:46.877Z,23.71
2022-09-04T15:29:46.628Z,23.72
2022-09-04T15:30:48.212Z,23.70
2022-09-04T15:31:46.705Z,23.68
2022-09-04T15:32:46.596Z,23.64
2022-09-04T15:33:46.581Z,23.62
2022-09-04T15:34:46.565Z,23.60
2022-09-04T15:35:46.554Z,23.57
2022-09-04T15:36:46.576Z,23.53
2022-09-04T15:37:48.388Z,23.50
2022-09-04T15:38:46.518Z,23.49
2022-09-04T15:39:46.542Z,23.47
2022-09-04T15:41:05.856Z,23.45
2022-09-04T15:41:47.474Z,23.42
2022-09-04T15:42:46.475Z,23.40
2022-09-04T15:43:46.487Z,23.38
2022-09-04T15:44:46.466Z,23.38
2022-09-04T15:45:46.415Z,23.35
2022-09-04T15:46:46.520Z,23.34
2022-09-04T15:47:46.396Z,23.31
2022-09-04T15:48:46.376Z,23.31
2022-09-04T15:49:46.363Z,23.27
2022-09-04T15:50:46.394Z,23.26
2022-09-04T15:51:46.424Z,23.24
2022-09-04T15:52:46.333Z,23.22
2022-09-04T15:53:46.723Z,23.22
2022-09-04T15:54:46.327Z,23.20
2022-09-04T15:55:46.294Z,23.19
2022-09-04T15:56:46.265Z,23.19
2022-09-04T15:57:46.243Z,23.15
2022-09-04T15:58:46.222Z,23.14
2022-09-04T15:59:46.226Z,23.14
2022-09-04T16:00:46.214Z,23.12
2022-09-04T16:01:46.255Z,23.09
2022-09-04T16:02:46.226Z,23.08
2022-09-04T16:03:46.163Z,23.05
2022-09-04T16:04:46.173Z,23.05
2022-09-04T16:05:46.133Z,23.02
2022-09-04T16:06:46.121Z,23.02
2022-09-04T16:07:46.120Z,23.01
2022-09-04T16:08:46.120Z,23.01
2022-09-04T16:09:46.141Z,22.97
2022-09-04T16:10:46.074Z,22.96
2022-09-04T16:11:46.043Z,22.94
2022-09-04T16:12:46.040Z,22.93
2022-09-04T16:13:46.085Z,22.92
2022-09-04T16:14:46.048Z,22.90
2022-09-04T16:15:46.033Z,22.87
2022-09-04T16:16:46.020Z,22.87
2022-09-04T16:17:46.005Z,22.82
2022-09-04T16:18:45.972Z,22.78
2022-09-04T16:19:45.958Z,22.77
2022-09-04T16:20:45.989Z,22.75
2022-09-04T16:21:45.950Z,22.74
2022-09-04T16:22:45.910Z,22.72
2022-09-04T16:23:45.930Z,22.71
2022-09-04T16:24:45.921Z,22.69
2022-09-04T16:25:45.960Z,22.67
2022-09-04T16:26:45.880Z,22.65
2022-09-04T16:27:45.859Z,22.65
2022-09-04T16:28:45.849Z,22.62
2022-09-04T16:29:45.838Z,22.62
2022-09-04T16:30:45.836Z,22.60
2022-09-04T16:31:45.789Z,22.59
2022-09-04T16:32:45.768Z,22.57
2022-09-04T16:33:45.757Z,22.56
2022-09-04T16:34:45.751Z,22.54
2022-09-04T16:35:45.799Z,22.52
2022-09-04T16:36:45.781Z,22.52
2022-09-04T16:37:45.738Z,22.52
2022-09-04T16:38:45.730Z,22.52
2022-09-04T16:39:45.787Z,22.49
2022-09-04T16:40:45.688Z,22.47
2022-09-04T16:41:45.671Z,22.47
2022-09-04T16:42:45.690Z,22.47
2022-09-04T16:43:45.656Z,22.46
2022-09-04T16:44:45.646Z,22.46
2022-09-04T16:45:45.640Z,22.47
2022-09-04T16:46:48.259Z,22.44
2022-09-04T16:47:45.584Z,22.46
2022-09-04T16:48:45.758Z,22.44
2022-09-04T16:49:46.810Z,22.44
2022-09-04T16:50:45.639Z,22.44
2022-09-04T16:51:45.553Z,22.41
2022-09-04T16:52:45.541Z,22.43
2022-09-04T16:53:45.506Z,22.41
2022-09-04T16:54:45.517Z,22.38
2022-09-04T16:55:45.537Z,22.39
2022-09-04T16:56:45.456Z,22.37
2022-09-04T16:57:45.455Z,22.34
2022-09-04T16:58:45.436Z,22.31
2022-09-04T16:59:46.167Z,22.29
2022-09-04T17:00:45.505Z,22.27
2022-09-04T17:01:45.508Z,22.23
2022-09-04T17:02:45.524Z,22.23
2022-09-04T17:03:45.382Z,22.20
2022-09-04T17:04:45.367Z,22.19
2022-09-04T17:05:45.395Z,22.14
2022-09-04T17:06:45.354Z,22.13
2022-09-04T17:07:45.363Z,22.10
2022-09-04T17:08:45.347Z,22.07
2022-09-04T17:09:45.304Z,22.04
2022-09-04T17:10:45.303Z,22.01
2022-09-04T17:11:45.324Z,21.98
2022-09-04T17:12:46.283Z,21.97
2022-09-04T17:13:45.257Z,21.92
2022-09-04T17:14:45.261Z,21.90
2022-09-04T17:15:53.644Z,21.90
2022-09-04T17:16:46.184Z,21.90
2022-09-04T17:17:45.243Z,21.83
2022-09-04T17:18:45.163Z,21.83
2022-09-04T17:19:45.173Z,21.82
2022-09-04T17:22:54.139Z,21.81
2022-09-04T17:25:57.362Z,21.78
2022-09-04T17:28:19.036Z,21.76
2022-09-04T17:28:54.109Z,21.78
2022-09-04T17:28:57.575Z,21.71
2022-09-04T17:28:58.917Z,21.74
2022-09-04T17:29:07.542Z,21.66
2022-09-04T17:29:08.060Z,21.67
2022-09-04T17:29:14.771Z,21.69
2022-09-04T17:29:47.713Z,21.64
2022-09-04T17:30:45.103Z,21.63
2022-09-04T17:31:45.664Z,21.60
2022-09-04T17:36:34.877Z,21.57
2022-09-04T17:38:40.056Z,21.53
2022-09-04T17:40:26.384Z,21.51
2022-09-04T17:40:36.992Z,21.45
2022-09-04T17:40:48.035Z,21.44
2022-09-04T17:40:51.771Z,21.41
2022-09-04T17:40:55.608Z,21.38
2022-09-04T17:40:57.300Z,21.48
2022-09-04T17:41:38.039Z,21.34
2022-09-04T17:41:59.441Z,21.30
2022-09-04T17:43:15.659Z,21.27
2022-09-04T17:43:45.848Z,21.24
2022-09-04T17:44:44.838Z,21.21
2022-09-04T17:45:46.019Z,21.20
2022-09-04T17:46:44.798Z,21.14
2022-09-04T17:47:44.776Z,21.09
2022-09-04T17:48:44.814Z,21.06
2022-09-04T17:49:44.758Z,21.05
2022-09-04T17:50:44.785Z,21.02
2022-09-04T17:51:44.707Z,20.99
2022-09-04T17:52:44.706Z,20.99
2022-09-04T17:53:44.727Z,20.96
2022-09-04T17:54:46.761Z,20.93
2022-09-04T17:55:47.681Z,20.89
2022-09-04T17:56:44.664Z,20.87
2022-09-04T17:57:44.666Z,20.86
2022-09-04T17:58:44.656Z,20.83
2022-09-04T17:59:45.831Z,20.83
2022-09-04T18:00:44.618Z,20.77
2022-09-04T18:01:44.661Z,20.76
2022-09-04T18:02:44.661Z,20.72
2022-09-04T18:04:02.793Z,20.68
2022-09-04T18:04:45.625Z,20.65
2022-09-04T18:05:51.513Z,20.64
2022-09-04T18:06:45.527Z,20.59
2022-09-04T18:08:07.712Z,20.54
2022-09-04T18:08:51.367Z,20.51
2022-09-04T18:09:45.476Z,20.49
2022-09-04T18:10:44.482Z,20.43
2022-09-04T18:11:44.445Z,20.41
2022-09-04T18:12:45.454Z,20.39
2022-09-04T18:13:44.417Z,20.38
2022-09-04T18:14:44.393Z,20.35
2022-09-04T18:15:44.434Z,20.33
2022-09-04T18:16:47.732Z,20.30
2022-09-04T18:17:45.364Z,20.28
2022-09-04T18:18:44.371Z,20.27
2022-09-04T18:19:44.354Z,20.25
2022-09-04T18:20:44.350Z,20.23
2022-09-04T18:21:44.302Z,20.20
2022-09-04T18:22:44.305Z,20.16
2022-09-04T18:23:44.313Z,20.13
2022-09-04T18:24:45.263Z,20.12
2022-09-04T18:25:44.252Z,20.08
2022-09-04T18:26:44.235Z,20.05
2022-09-04T18:27:44.241Z,20.03
2022-09-04T18:28:47.393Z,20.00
2022-09-04T18:31:05.895Z,19.97
2022-09-04T18:37:05.851Z,19.93
2022-09-04T18:37:06.586Z,19.91
2022-09-04T18:37:07.721Z,19.88
2022-09-04T18:37:19.199Z,19.75
2022-09-04T18:37:25.489Z,19.79
2022-09-04T18:37:26.559Z,19.83
2022-09-04T18:37:27.096Z,19.72
2022-09-04T18:37:47.441Z,19.69
2022-09-04T18:38:44.231Z,19.68
2022-09-04T18:39:44.157Z,19.63
2022-09-04T18:44:00.855Z,19.63
2022-09-04T18:47:17.378Z,19.60
2022-09-04T18:49:03.050Z,19.61
2022-09-04T18:50:22.758Z,19.58
2022-09-04T18:50:25.321Z,19.55
2022-09-04T18:50:31.684Z,19.50
2022-09-04T18:50:33.352Z,19.55
2022-09-04T18:50:37.886Z,19.53
2022-09-04T18:50:43.481Z,19.47
2022-09-04T18:50:47.145Z,19.48
2022-09-04T18:51:43.998Z,19.40
2022-09-04T18:52:43.918Z,19.39
2022-09-04T18:53:43.929Z,19.36
2022-09-04T18:54:43.879Z,19.35
2022-09-04T18:55:43.857Z,19.33
2022-09-04T18:56:43.848Z,19.32
2022-09-04T18:57:48.601Z,19.31
2022-09-04T18:58:44.804Z,19.28
2022-09-04T18:59:43.816Z,19.23
2022-09-04T19:00:43.791Z,19.24
2022-09-04T19:01:43.893Z,19.20
2022-09-04T19:02:43.877Z,19.18
2022-09-04T19:03:44.778Z,19.15
2022-09-04T19:04:43.758Z,19.14
2022-09-04T19:05:44.792Z,19.14
2022-09-04T19:06:43.697Z,19.13
2022-09-04T19:07:43.726Z,19.11
2022-09-04T19:08:43.716Z,19.10
2022-09-04T19:09:48.690Z,19.08
2022-09-04T19:10:44.668Z,19.06
2022-09-04T19:11:43.824Z,19.05
2022-09-04T19:12:47.668Z,19.01
2022-09-04T19:13:43.604Z,18.98
2022-09-04T19:14:43.615Z,18.95
